CheckWX is a tool to help pilots better visualize weather data.  It is not intended as a substitute for an official pre-flight weather briefing.

14:38:39 UTC

KFNL METAR
Fort Collins-Loveland Municipal Airport
Fort Collins/Loveland, Colorado, USA
Current

43 mins ago

KFNL 221356Z AUTO 07006KT 10SM OVC024 06/03 A3026 RMK AO2 SLP236 T00610028
Observed
Apr-22 @ 13:56 UTC
Wind
  • 070° at 6 KTS
Visibility
10 SM
Flight Rules
MVFR
Cloud Levels
  • Overcast at 2,400' AGL
Temperature
C / 43°F
Dewpoint
C / 37°F
Humidity
81%
Altimeter
30.26" Hg
Pressure
1024.72 hPa
Previous

2 hours ago

KFNL 221256Z AUTO 04007KT 10SM BKN022 OVC038 06/03 A3023 RMK AO2 SLP226 T00610028
Observed
Apr-22 @ 12:56 UTC
Wind
  • 040° at 7 KTS
Visibility
10 SM
Flight Rules
MVFR
Cloud Levels
  • Broken at 2,200' AGL
  • Overcast at 3,800' AGL
Temperature
C / 43°F
Dewpoint
C / 37°F
Humidity
81%
Altimeter
30.23" Hg
Pressure
1023.72 hPa
Previous

3 hours ago

KFNL 221156Z AUTO 04005KT 10SM SCT018 OVC038 06/03 A3021 RMK AO2 SLP219 60000 70021 T00610033 10078 20061 53013
Observed
Apr-22 @ 11:56 UTC
Wind
  • 040° at 5 KTS
Visibility
10 SM
Flight Rules
VFR
Cloud Levels
  • Scattered at 1,800' AGL
  • Overcast at 3,800' AGL
Temperature
C / 43°F
Dewpoint
C / 37°F
Humidity
81%
Altimeter
30.21" Hg
Pressure
1023.02 hPa
24 Hour Rain
0.21"